createdAt,value
2022-09-15T00:01:47.935Z,100.00
2022-09-15T00:03:50.192Z,100.00
2022-09-15T00:05:53.608Z,100.00
2022-09-15T00:07:55.546Z,100.00
2022-09-15T00:09:57.504Z,100.00
2022-09-15T00:11:59.221Z,100.00
2022-09-15T00:14:03.474Z,100.00
2022-09-15T00:16:05.717Z,100.00
2022-09-15T00:18:07.477Z,100.00
2022-09-15T00:20:10.040Z,100.00
2022-09-15T00:22:11.795Z,100.00
2022-09-15T00:24:13.489Z,100.00
2022-09-15T00:26:19.246Z,100.00
2022-09-15T00:28:22.772Z,100.00
2022-09-15T00:30:24.499Z,100.00
2022-09-15T00:32:26.458Z,100.00
2022-09-15T00:34:28.428Z,100.00
2022-09-15T00:36:30.907Z,100.00
2022-09-15T00:38:33.827Z,100.00
2022-09-15T00:41:01.743Z,100.00
2022-09-15T00:43:03.431Z,100.00
2022-09-15T00:45:06.613Z,100.00
2022-09-15T00:47:23.606Z,100.00
2022-09-15T00:49:29.801Z,100.00
2022-09-15T00:51:41.291Z,100.00
2022-09-15T00:53:44.206Z,100.00
2022-09-15T00:55:49.774Z,100.00
2022-09-15T00:57:56.147Z,100.00
2022-09-15T01:02:26.093Z,100.00
2022-09-15T01:04:27.888Z,100.00
2022-09-15T01:06:36.413Z,100.00
2022-09-15T01:09:01.155Z,100.00
2022-09-15T01:11:03.235Z,100.00
2022-09-15T01:13:11.208Z,100.00
2022-09-15T01:15:13.061Z,100.00
2022-09-15T01:19:51.471Z,100.00
2022-09-15T01:22:23.424Z,100.00
2022-09-15T01:24:43.391Z,100.00
2022-09-15T01:26:50.758Z,100.00
2022-09-15T01:29:01.520Z,100.00
2022-09-15T01:31:29.509Z,100.00
2022-09-15T01:33:38.509Z,100.00
2022-09-15T01:35:55.413Z,100.00
2022-09-15T01:38:30.720Z,100.00
2022-09-15T01:40:38.267Z,100.00
2022-09-15T01:42:42.679Z,100.00
2022-09-15T01:44:57.828Z,100.00
2022-09-15T01:47:07.352Z,100.00
2022-09-15T01:49:13.619Z,100.00
2022-09-15T01:51:16.466Z,100.00
2022-09-15T01:53:21.014Z,100.00
2022-09-15T01:55:47.142Z,100.00
2022-09-15T01:57:49.203Z,100.00
2022-09-15T01:59:53.774Z,100.00
2022-09-15T02:02:04.836Z,100.00
2022-09-15T02:05:02.245Z,100.00
2022-09-15T02:07:21.173Z,100.00
2022-09-15T02:09:30.551Z,100.00
2022-09-15T02:11:36.794Z,100.00
2022-09-15T02:14:05.470Z,100.00
2022-09-15T02:16:18.598Z,100.00
2022-09-15T02:18:41.282Z,100.00
2022-09-15T02:20:53.070Z,100.00
2022-09-15T02:23:00.185Z,100.00
2022-09-15T02:25:10.923Z,100.00
2022-09-15T02:27:19.735Z,100.00
2022-09-15T02:29:24.494Z,100.00
2022-09-15T02:31:29.470Z,100.00
2022-09-15T02:33:37.840Z,100.00
2022-09-15T02:35:41.201Z,100.00
2022-09-15T02:37:43.469Z,100.00
2022-09-15T02:39:49.970Z,100.00
2022-09-15T02:41:52.299Z,100.00
2022-09-15T02:43:54.033Z,100.00
2022-09-15T02:45:56.058Z,100.00
2022-09-15T02:47:58.728Z,100.00
2022-09-15T02:50:00.406Z,100.00
2022-09-15T02:52:02.697Z,100.00
2022-09-15T02:54:04.471Z,100.00
2022-09-15T02:56:06.626Z,100.00
2022-09-15T02:58:08.580Z,100.00
2022-09-15T03:00:11.020Z,100.00
2022-09-15T03:04:13.076Z,100.00
2022-09-15T03:06:14.803Z,100.00
2022-09-15T03:08:16.539Z,100.00
2022-09-15T03:10:18.822Z,100.00
2022-09-15T03:12:20.507Z,100.00
2022-09-15T03:14:22.294Z,100.00
2022-09-15T03:16:25.676Z,100.00
2022-09-15T03:18:27.381Z,100.00
2022-09-15T03:20:29.263Z,100.00
2022-09-15T03:22:31.531Z,100.00
2022-09-15T03:24:33.224Z,100.00
2022-09-15T03:26:34.906Z,100.00
2022-09-15T03:28:38.683Z,100.00
2022-09-15T03:30:40.367Z,100.00
2022-09-15T03:32:42.292Z,100.00
2022-09-15T03:34:44.155Z,100.00
2022-09-15T03:36:46.097Z,100.00
2022-09-15T03:38:47.836Z,100.00
2022-09-15T03:41:07.562Z,100.00
2022-09-15T03:43:10.209Z,100.00
2022-09-15T03:45:11.905Z,100.00
2022-09-15T03:47:14.006Z,100.00
2022-09-15T03:49:15.757Z,100.00
2022-09-15T03:51:17.492Z,100.00
2022-09-15T03:53:20.014Z,100.00
2022-09-15T03:55:21.686Z,100.00
2022-09-15T03:57:23.439Z,100.00
2022-09-15T03:59:25.523Z,100.00
2022-09-15T04:01:28.530Z,100.00
2022-09-15T04:03:30.331Z,100.00
2022-09-15T04:05:32.529Z,100.00
2022-09-15T04:07:34.232Z,100.00
2022-09-15T04:09:35.946Z,100.00
2022-09-15T04:11:38.851Z,100.00
2022-09-15T04:13:41.904Z,100.00
2022-09-15T04:15:43.632Z,100.00
2022-09-15T04:17:45.755Z,100.00
2022-09-15T04:19:47.506Z,100.00
2022-09-15T04:21:49.191Z,100.00
2022-09-15T04:23:51.876Z,100.00
2022-09-15T04:25:57.427Z,100.00
2022-09-15T04:27:59.099Z,100.00
2022-09-15T04:30:00.948Z,100.00
2022-09-15T04:32:03.047Z,100.00
2022-09-15T04:34:04.743Z,100.00
2022-09-15T04:36:10.097Z,100.00
2022-09-15T04:38:11.845Z,100.00
2022-09-15T04:40:13.606Z,100.00
2022-09-15T04:42:15.707Z,100.00
2022-09-15T04:44:17.581Z,100.00
2022-09-15T04:46:19.752Z,100.00
2022-09-15T04:48:22.816Z,100.00
2022-09-15T04:50:24.558Z,100.00
2022-09-15T04:52:26.293Z,100.00
2022-09-15T04:54:28.874Z,100.00
2022-09-15T04:56:30.612Z,100.00
2022-09-15T04:58:39.367Z,100.00
2022-09-15T05:00:43.227Z,100.00
2022-09-15T05:02:45.024Z,100.00
2022-09-15T05:04:48.687Z,100.00
2022-09-15T05:06:50.496Z,100.00
2022-09-15T05:08:55.117Z,100.00
2022-09-15T05:11:01.710Z,100.00
2022-09-15T05:13:03.612Z,100.00
2022-09-15T05:15:06.437Z,100.00
2022-09-15T05:17:08.194Z,100.00
2022-09-15T05:19:10.639Z,100.00
2022-09-15T05:21:15.795Z,100.00
2022-09-15T05:23:17.766Z,100.00
2022-09-15T05:25:19.507Z,100.00
2022-09-15T05:27:21.213Z,100.00
2022-09-15T05:29:22.976Z,100.00
2022-09-15T05:31:28.078Z,100.00
2022-09-15T05:33:29.818Z,100.00
2022-09-15T05:35:31.596Z,100.00
2022-09-15T05:37:34.336Z,100.00
2022-09-15T05:39:36.391Z,100.00
2022-09-15T05:41:38.249Z,100.00
2022-09-15T05:43:40.300Z,100.00
2022-09-15T05:45:42.229Z,100.00
2022-09-15T05:47:43.937Z,100.00
2022-09-15T05:49:45.809Z,100.00
2022-09-15T05:51:47.542Z,100.00
2022-09-15T05:53:49.464Z,100.00
2022-09-15T05:55:58.877Z,100.00
2022-09-15T05:58:00.614Z,100.00
2022-09-15T06:00:02.860Z,100.00
2022-09-15T06:02:05.007Z,100.00
2022-09-15T06:04:06.761Z,100.00
2022-09-15T06:06:08.661Z,100.00
2022-09-15T06:08:10.693Z,100.00
2022-09-15T06:10:12.436Z,100.00
2022-09-15T06:12:14.123Z,100.00
2022-09-15T06:14:16.078Z,100.00
2022-09-15T06:16:20.646Z,100.00
2022-09-15T06:18:22.520Z,100.00
2022-09-15T06:20:25.110Z,100.00
2022-09-15T06:22:28.190Z,100.00
2022-09-15T06:24:29.973Z,100.00
2022-09-15T06:26:31.861Z,100.00
2022-09-15T06:28:33.534Z,100.00
2022-09-15T06:30:35.341Z,100.00
2022-09-15T06:32:37.212Z,100.00
2022-09-15T06:34:38.895Z,100.00
2022-09-15T06:36:40.595Z,100.00
2022-09-15T06:38:42.987Z,100.00
2022-09-15T06:40:44.679Z,100.00
2022-09-15T06:42:46.507Z,100.00
2022-09-15T06:44:48.390Z,100.00
2022-09-15T06:46:50.294Z,100.00
2022-09-15T06:48:52.721Z,100.00
2022-09-15T06:50:54.971Z,100.00
2022-09-15T06:52:56.644Z,100.00
2022-09-15T06:54:58.423Z,100.00
2022-09-15T06:57:00.233Z,100.00
2022-09-15T06:59:01.963Z,100.00
2022-09-15T07:01:08.878Z,100.00
2022-09-15T07:03:11.009Z,100.00
2022-09-15T07:05:12.852Z,100.00
2022-09-15T07:07:14.815Z,100.00
2022-09-15T07:09:16.712Z,100.00
2022-09-15T07:11:18.670Z,95.74
2022-09-15T07:13:20.854Z,92.92
2022-09-15T07:15:22.587Z,92.69
2022-09-15T07:17:24.482Z,91.79
2022-09-15T07:19:26.167Z,89.83
2022-09-15T07:21:28.639Z,87.36
2022-09-15T07:23:30.756Z,87.10
2022-09-15T07:25:32.535Z,84.51
2022-09-15T07:27:34.470Z,84.58
2022-09-15T07:29:37.893Z,89.89
2022-09-15T07:31:39.624Z,87.10
2022-09-15T07:33:41.567Z,83.50
2022-09-15T07:35:43.960Z,84.84
2022-09-15T07:37:45.888Z,86.01
2022-09-15T07:39:47.843Z,85.87
2022-09-15T07:41:49.577Z,85.86
2022-09-15T07:43:56.752Z,85.73
2022-09-15T07:46:02.354Z,87.24
2022-09-15T07:48:04.141Z,89.05
2022-09-15T07:50:07.247Z,88.27
2022-09-15T07:52:09.418Z,87.90
2022-09-15T07:54:11.142Z,89.82
2022-09-15T07:56:13.268Z,89.38
2022-09-15T07:58:15.417Z,88.23
2022-09-15T08:00:17.245Z,88.00
2022-09-15T08:02:21.205Z,85.75
2022-09-15T08:04:23.450Z,89.18
2022-09-15T08:06:26.688Z,88.46
2022-09-15T08:08:29.739Z,88.48
2022-09-15T08:10:32.245Z,88.79
2022-09-15T08:12:33.927Z,90.05
2022-09-15T08:14:35.837Z,87.96
2022-09-15T08:16:38.731Z,89.37
2022-09-15T08:18:42.731Z,87.25
2022-09-15T08:20:44.930Z,84.23
2022-09-15T08:22:46.917Z,83.84
2022-09-15T08:24:48.635Z,84.79
2022-09-15T08:26:50.992Z,85.68
2022-09-15T08:28:53.335Z,84.07
2022-09-15T08:31:06.974Z,82.76
2022-09-15T08:33:08.774Z,84.85
2022-09-15T08:35:10.608Z,85.28
2022-09-15T08:37:12.299Z,85.09
2022-09-15T08:39:14.023Z,85.76
2022-09-15T08:41:27.704Z,84.86
2022-09-15T08:43:36.345Z,84.58
2022-09-15T08:45:49.800Z,83.84
2022-09-15T08:47:56.837Z,84.64
2022-09-15T08:50:34.040Z,86.92
2022-09-15T08:52:58.261Z,85.97
2022-09-15T08:55:19.926Z,85.63
2022-09-15T08:57:24.686Z,83.60
2022-09-15T08:59:35.795Z,84.27
2022-09-15T09:01:58.469Z,82.53
2022-09-15T09:04:18.717Z,80.14
2022-09-15T09:06:41.990Z,79.91
2022-09-15T09:08:50.742Z,80.92
2022-09-15T09:10:57.000Z,78.00
2022-09-15T09:13:20.449Z,78.90
2022-09-15T09:15:43.942Z,78.41
2022-09-15T09:17:51.513Z,74.02
2022-09-15T09:20:17.883Z,77.39
2022-09-15T09:22:25.932Z,73.77
2022-09-15T09:24:46.710Z,72.38
2022-09-15T09:26:51.802Z,72.99
2022-09-15T09:29:00.229Z,74.13
2022-09-15T09:31:05.504Z,74.63
2022-09-15T09:33:20.976Z,74.56
2022-09-15T09:35:40.049Z,76.49
2022-09-15T09:37:41.823Z,74.39
2022-09-15T09:39:43.600Z,71.94
2022-09-15T09:41:45.358Z,73.50
2022-09-15T09:43:49.128Z,74.00
2022-09-15T09:45:50.919Z,75.11
2022-09-15T09:47:56.337Z,76.15
2022-09-15T09:50:00.107Z,76.87
2022-09-15T09:52:03.364Z,78.91
2022-09-15T09:54:13.643Z,80.25
2022-09-15T09:56:24.515Z,80.06
2022-09-15T09:58:26.342Z,78.52
2022-09-15T10:00:37.033Z,77.27
2022-09-15T10:02:47.612Z,76.14
2022-09-15T10:04:55.009Z,73.59
2022-09-15T10:06:57.078Z,75.40
2022-09-15T10:09:02.329Z,75.45
2022-09-15T10:11:07.324Z,75.64
2022-09-15T10:13:11.479Z,76.86
2022-09-15T10:15:28.766Z,78.17
2022-09-15T10:17:36.338Z,77.78
2022-09-15T10:19:48.522Z,78.52
2022-09-15T10:21:50.726Z,78.19
2022-09-15T10:23:52.625Z,78.20
2022-09-15T10:26:18.369Z,78.05
2022-09-15T10:28:25.319Z,77.67
2022-09-15T10:30:27.802Z,76.31
2022-09-15T10:32:30.939Z,77.98
2022-09-15T10:34:32.697Z,73.37
2022-09-15T10:36:34.617Z,72.26
2022-09-15T10:38:46.267Z,68.73
2022-09-15T10:41:04.282Z,69.21
2022-09-15T10:43:18.194Z,65.00
2022-09-15T10:45:19.707Z,69.84
2022-09-15T10:47:29.806Z,72.55
2022-09-15T10:49:51.875Z,71.98
2022-09-15T10:52:05.566Z,73.29
2022-09-15T10:54:34.372Z,72.03
2022-09-15T10:56:55.385Z,72.56
2022-09-15T10:59:07.616Z,71.14
2022-09-15T11:01:30.837Z,72.42
2022-09-15T11:03:40.932Z,71.19
2022-09-15T11:06:09.630Z,70.45
2022-09-15T11:08:29.799Z,70.28
2022-09-15T11:11:06.654Z,70.36
2022-09-15T11:13:23.463Z,69.69
2022-09-15T11:15:34.042Z,70.36
2022-09-15T11:18:05.290Z,69.71
2022-09-15T11:20:28.093Z,70.20
2022-09-15T11:22:50.015Z,68.92
2022-09-15T11:24:53.499Z,68.43
2022-09-15T11:27:03.562Z,69.01
2022-09-15T11:29:20.231Z,69.28
2022-09-15T11:31:45.035Z,69.04
2022-09-15T11:33:58.835Z,67.68
2022-09-15T11:36:33.517Z,67.81
2022-09-15T11:38:37.945Z,69.30
2022-09-15T11:40:47.192Z,68.97
2022-09-15T11:42:48.835Z,67.88
2022-09-15T11:44:50.632Z,68.19
2022-09-15T11:47:07.227Z,68.10
2022-09-15T11:49:19.043Z,67.51
2022-09-15T11:51:24.445Z,68.02
2022-09-15T11:53:50.575Z,68.34
2022-09-15T11:56:00.521Z,68.34
2022-09-15T11:58:38.758Z,69.46
2022-09-15T12:01:00.595Z,68.25
2022-09-15T12:03:20.282Z,67.50
2022-09-15T12:05:29.288Z,69.72
2022-09-15T12:07:36.176Z,72.39
2022-09-15T12:09:38.871Z,71.94
2022-09-15T12:11:49.286Z,72.93
2022-09-15T12:13:51.748Z,75.80
2022-09-15T12:15:54.665Z,75.40
2022-09-15T12:18:27.243Z,73.95
2022-09-15T12:20:39.831Z,72.30
2022-09-15T12:22:49.286Z,70.30
2022-09-15T12:25:03.125Z,68.82
2022-09-15T12:27:04.892Z,66.74
2022-09-15T12:29:21.989Z,68.49
2022-09-15T12:31:30.981Z,65.80
2022-09-15T12:33:46.566Z,66.47
2022-09-15T12:35:48.294Z,67.08
2022-09-15T12:37:54.137Z,67.37
2022-09-15T12:39:56.006Z,68.10
2022-09-15T12:42:17.932Z,68.75
2022-09-15T12:44:42.593Z,68.32
2022-09-15T12:46:55.212Z,68.17
2022-09-15T12:49:02.610Z,69.09
2022-09-15T12:51:10.153Z,67.07
2022-09-15T12:53:23.412Z,69.90
2022-09-15T12:55:29.914Z,68.81
2022-09-15T12:57:37.386Z,68.78
2022-09-15T12:59:39.341Z,68.85
2022-09-15T13:01:48.631Z,68.21
2022-09-15T13:03:50.483Z,66.21
2022-09-15T13:06:13.594Z,68.00
2022-09-15T13:08:35.190Z,67.09
2022-09-15T13:10:41.719Z,67.79
2022-09-15T13:12:53.520Z,67.09
2022-09-15T13:14:56.986Z,67.95
2022-09-15T13:17:07.789Z,68.90
2022-09-15T13:19:34.144Z,68.31
2022-09-15T13:21:39.729Z,68.75
2022-09-15T13:23:46.618Z,69.61
2022-09-15T13:25:49.955Z,71.39
2022-09-15T13:27:57.420Z,72.02
2022-09-15T13:30:31.685Z,71.55
2022-09-15T13:32:59.203Z,71.77
2022-09-15T13:35:20.945Z,71.10
2022-09-15T13:40:20.560Z,71.31
2022-09-15T13:42:22.372Z,72.35
2022-09-15T13:45:06.686Z,70.86
2022-09-15T13:47:33.161Z,71.46
2022-09-15T13:49:59.079Z,71.68
2022-09-15T13:52:07.624Z,72.06
2022-09-15T13:54:19.491Z,73.47
2022-09-15T13:56:31.603Z,73.59
2022-09-15T14:01:04.920Z,74.44
2022-09-15T14:03:11.686Z,74.73
2022-09-15T14:05:14.439Z,75.29
2022-09-15T14:07:23.286Z,75.30
2022-09-15T14:09:29.749Z,75.85
2022-09-15T14:11:33.775Z,75.92
2022-09-15T14:13:37.425Z,77.38
2022-09-15T14:15:38.990Z,77.57
2022-09-15T14:17:45.682Z,78.68
2022-09-15T14:19:52.824Z,79.38
2022-09-15T14:21:58.249Z,79.04
2022-09-15T14:24:06.133Z,79.70
2022-09-15T14:26:13.594Z,80.68
2022-09-15T14:28:22.084Z,79.99
2022-09-15T14:30:30.944Z,79.28
2022-09-15T14:32:43.477Z,80.58
2022-09-15T14:34:45.662Z,80.15
2022-09-15T14:36:57.281Z,79.53
2022-09-15T14:39:18.602Z,79.71
2022-09-15T14:41:20.326Z,79.34
2022-09-15T14:43:32.687Z,80.25
2022-09-15T14:48:09.059Z,80.76
2022-09-15T14:50:16.565Z,80.81
2022-09-15T14:52:34.192Z,80.88
2022-09-15T14:54:37.769Z,82.10
2022-09-15T14:56:41.697Z,82.26
2022-09-15T14:58:59.855Z,82.37
2022-09-15T15:01:09.608Z,81.94
2022-09-15T15:03:17.561Z,82.38
2022-09-15T15:05:26.270Z,82.42
2022-09-15T15:07:31.095Z,83.74
2022-09-15T15:09:37.376Z,82.28
2022-09-15T15:11:41.413Z,82.11
2022-09-15T15:13:45.828Z,82.37
2022-09-15T15:15:48.389Z,82.28
2022-09-15T15:17:52.598Z,82.14
2022-09-15T15:20:27.555Z,81.92
2022-09-15T15:22:29.812Z,82.63
2022-09-15T15:24:32.023Z,81.47
2022-09-15T15:26:40.787Z,81.80
2022-09-15T15:28:42.778Z,82.04
2022-09-15T15:30:46.577Z,83.02
2022-09-15T15:32:48.892Z,82.81
2022-09-15T15:35:00.095Z,82.78
2022-09-15T15:37:03.496Z,82.54
2022-09-15T15:39:07.820Z,83.62
2022-09-15T15:41:20.674Z,86.49
2022-09-15T15:43:25.101Z,83.48
2022-09-15T15:45:29.571Z,83.78
2022-09-15T15:47:35.397Z,84.62
2022-09-15T15:49:46.176Z,85.18
2022-09-15T15:51:56.595Z,85.51
2022-09-15T15:53:58.447Z,85.86
2022-09-15T15:56:00.223Z,85.41
2022-09-15T15:58:01.955Z,85.52
2022-09-15T16:00:11.112Z,86.10
2022-09-15T16:02:15.799Z,86.42
2022-09-15T16:04:24.399Z,86.97
2022-09-15T16:06:28.036Z,88.31
2022-09-15T16:08:33.378Z,86.78
2022-09-15T16:10:43.135Z,88.11
2022-09-15T16:12:45.056Z,88.17
2022-09-15T16:14:47.188Z,88.27
2022-09-15T16:16:54.103Z,89.81
2022-09-15T16:18:59.759Z,90.78
2022-09-15T16:21:04.633Z,91.33
2022-09-15T16:23:07.545Z,91.78
2022-09-15T16:25:23.614Z,91.09
2022-09-15T16:27:25.376Z,91.14
2022-09-15T16:29:27.083Z,92.01
2022-09-15T16:31:30.114Z,92.47
2022-09-15T16:33:39.942Z,93.38
2022-09-15T16:35:56.862Z,93.16
2022-09-15T16:38:08.010Z,93.61
2022-09-15T16:40:14.236Z,94.17
2022-09-15T16:42:17.809Z,94.22
2022-09-15T16:44:23.501Z,94.37
2022-09-15T16:46:25.545Z,95.42
2022-09-15T16:48:29.284Z,96.36
2022-09-15T16:50:50.098Z,98.03
2022-09-15T16:52:59.279Z,98.77
2022-09-15T16:55:01.011Z,99.20
2022-09-15T16:57:02.939Z,99.87
2022-09-15T16:59:04.639Z,100.00
2022-09-15T17:01:07.108Z,100.00
2022-09-15T17:03:12.550Z,100.00
2022-09-15T17:05:48.672Z,100.00
2022-09-15T17:10:09.565Z,100.00
2022-09-15T17:14:18.335Z,100.00
2022-09-15T17:16:20.393Z,100.00
2022-09-15T17:18:23.235Z,100.00
2022-09-15T17:20:25.402Z,100.00
2022-09-15T17:22:27.224Z,100.00
2022-09-15T17:24:28.934Z,100.00
2022-09-15T17:26:31.613Z,100.00
2022-09-15T17:28:35.217Z,100.00
2022-09-15T17:30:38.181Z,100.00
2022-09-15T17:32:40.215Z,100.00
2022-09-15T17:34:46.053Z,100.00
2022-09-15T17:36:47.720Z,100.00
2022-09-15T17:38:51.945Z,100.00
2022-09-15T17:40:57.162Z,100.00
2022-09-15T17:43:17.223Z,100.00
2022-09-15T17:45:49.593Z,100.00
2022-09-15T17:47:52.836Z,100.00
2022-09-15T17:49:54.849Z,100.00
2022-09-15T17:51:59.879Z,100.00
2022-09-15T17:54:01.705Z,100.00
2022-09-15T17:56:03.425Z,100.00
2022-09-15T17:58:08.327Z,100.00
2022-09-15T18:00:16.238Z,100.00
2022-09-15T18:02:20.462Z,100.00
2022-09-15T18:04:22.751Z,100.00
2022-09-15T18:06:24.473Z,100.00
2022-09-15T18:08:28.531Z,100.00
2022-09-15T18:10:35.173Z,100.00
2022-09-15T18:12:37.039Z,100.00
2022-09-15T18:14:38.853Z,100.00
2022-09-15T18:16:40.584Z,100.00
2022-09-15T18:18:42.987Z,100.00
2022-09-15T18:20:44.933Z,100.00
2022-09-15T18:22:47.950Z,100.00
2022-09-15T18:24:49.833Z,100.00
2022-09-15T18:26:51.651Z,100.00
2022-09-15T18:28:53.668Z,100.00
2022-09-15T18:30:55.857Z,100.00
2022-09-15T18:32:58.756Z,100.00
2022-09-15T18:35:00.752Z,100.00
2022-09-15T18:37:03.388Z,100.00
2022-09-15T18:39:08.827Z,100.00
2022-09-15T18:41:15.352Z,100.00
2022-09-15T18:43:17.648Z,100.00
2022-09-15T18:45:20.190Z,100.00
2022-09-15T18:47:22.011Z,100.00
2022-09-15T18:49:23.791Z,100.00
2022-09-15T18:51:50.490Z,100.00
2022-09-15T18:53:54.542Z,100.00
2022-09-15T18:55:59.373Z,100.00
2022-09-15T18:58:01.883Z,100.00
2022-09-15T19:00:12.430Z,100.00
2022-09-15T19:02:14.411Z,100.00
2022-09-15T19:04:16.270Z,100.00
2022-09-15T19:06:27.433Z,100.00
2022-09-15T19:08:30.442Z,100.00
2022-09-15T19:10:32.198Z,100.00
2022-09-15T19:12:36.749Z,100.00
2022-09-15T19:14:41.293Z,100.00
2022-09-15T19:16:57.636Z,100.00
2022-09-15T19:19:00.850Z,100.00
2022-09-15T19:21:10.536Z,100.00
2022-09-15T19:23:12.994Z,100.00
2022-09-15T19:25:16.822Z,100.00
2022-09-15T19:27:19.055Z,100.00
2022-09-15T19:29:20.768Z,100.00
2022-09-15T19:31:23.930Z,100.00
2022-09-15T19:33:26.919Z,100.00
2022-09-15T19:35:29.286Z,100.00
2022-09-15T19:37:31.053Z,100.00
2022-09-15T19:39:32.933Z,100.00
2022-09-15T19:41:34.649Z,100.00
2022-09-15T19:43:36.613Z,100.00
2022-09-15T19:45:41.683Z,100.00
2022-09-15T19:47:43.434Z,100.00
2022-09-15T19:49:45.250Z,100.00
2022-09-15T19:51:47.075Z,100.00
2022-09-15T19:53:48.823Z,100.00
2022-09-15T19:55:51.470Z,100.00
2022-09-15T19:57:53.229Z,100.00
2022-09-15T19:59:54.912Z,100.00
2022-09-15T20:02:01.546Z,100.00
2022-09-15T20:08:42.487Z,100.00
2022-09-15T20:10:45.633Z,100.00
2022-09-15T20:12:47.400Z,100.00
2022-09-15T20:14:49.087Z,100.00
2022-09-15T20:16:50.771Z,100.00
2022-09-15T20:18:54.036Z,100.00
2022-09-15T20:20:56.620Z,100.00
2022-09-15T20:23:07.380Z,100.00
2022-09-15T20:25:10.212Z,100.00
2022-09-15T20:27:12.127Z,100.00
2022-09-15T20:29:17.753Z,100.00
2022-09-15T20:33:51.119Z,100.00
2022-09-15T20:36:03.489Z,100.00
2022-09-15T20:38:05.279Z,100.00
2022-09-15T20:40:08.354Z,100.00
2022-09-15T20:42:10.068Z,100.00
2022-09-15T20:44:12.311Z,100.00
2022-09-15T20:46:16.995Z,100.00
2022-09-15T20:48:18.715Z,100.00
2022-09-15T20:50:20.419Z,100.00
2022-09-15T20:52:23.613Z,100.00
2022-09-15T20:54:27.539Z,100.00
2022-09-15T20:56:31.285Z,100.00
2022-09-15T20:58:34.241Z,100.00
2022-09-15T21:00:35.927Z,100.00
2022-09-15T21:02:39.226Z,100.00
2022-09-15T21:04:41.260Z,100.00
2022-09-15T21:06:47.202Z,100.00
2022-09-15T21:08:49.928Z,100.00
2022-09-15T21:10:51.833Z,100.00
2022-09-15T21:12:53.583Z,100.00
2022-09-15T21:14:55.350Z,100.00
2022-09-15T21:16:57.168Z,100.00
2022-09-15T21:18:59.161Z,100.00
2022-09-15T21:21:07.340Z,100.00
2022-09-15T21:23:11.585Z,100.00
2022-09-15T21:25:13.683Z,100.00
2022-09-15T21:27:15.652Z,100.00
2022-09-15T21:29:17.813Z,100.00
2022-09-15T21:31:37.002Z,100.00
2022-09-15T21:33:39.853Z,100.00
2022-09-15T21:35:41.999Z,100.00
2022-09-15T21:37:44.400Z,100.00
2022-09-15T21:39:46.616Z,100.00
2022-09-15T21:41:49.340Z,100.00
2022-09-15T21:44:00.303Z,100.00
2022-09-15T21:46:06.852Z,100.00
2022-09-15T21:48:09.356Z,100.00
2022-09-15T21:50:14.306Z,100.00
2022-09-15T21:52:19.753Z,100.00
2022-09-15T21:54:23.299Z,100.00
2022-09-15T21:56:27.790Z,100.00
2022-09-15T21:58:41.716Z,100.00
2022-09-15T22:00:49.802Z,100.00
2022-09-15T22:03:18.421Z,100.00
2022-09-15T22:05:26.431Z,100.00
2022-09-15T22:07:48.826Z,100.00
2022-09-15T22:09:50.513Z,100.00
2022-09-15T22:11:52.229Z,100.00
2022-09-15T22:14:05.948Z,100.00
2022-09-15T22:16:16.151Z,100.00
2022-09-15T22:18:18.364Z,100.00
2022-09-15T22:20:20.340Z,100.00
2022-09-15T22:22:22.198Z,100.00
2022-09-15T22:24:25.125Z,100.00
2022-09-15T22:26:30.666Z,100.00
2022-09-15T22:28:38.577Z,100.00
2022-09-15T22:30:40.522Z,100.00
2022-09-15T22:32:42.358Z,100.00
2022-09-15T22:34:46.151Z,100.00
2022-09-15T22:36:51.573Z,100.00
2022-09-15T22:38:56.420Z,100.00
2022-09-15T22:41:07.131Z,100.00
2022-09-15T22:43:09.356Z,100.00
2022-09-15T22:45:13.522Z,100.00
2022-09-15T22:49:18.380Z,100.00
2022-09-15T22:51:20.413Z,100.00
2022-09-15T22:53:22.271Z,100.00
2022-09-15T22:55:24.409Z,100.00
2022-09-15T22:57:36.685Z,100.00
2022-09-15T22:59:47.892Z,100.00
2022-09-15T23:01:50.070Z,100.00
2022-09-15T23:03:53.823Z,100.00
2022-09-15T23:06:00.606Z,100.00
2022-09-15T23:08:07.332Z,100.00
2022-09-15T23:10:09.495Z,100.00
2022-09-15T23:12:14.607Z,100.00
2022-09-15T23:14:29.894Z,100.00
2022-09-15T23:16:36.972Z,100.00
2022-09-15T23:18:44.774Z,100.00
2022-09-15T23:20:47.025Z,100.00
2022-09-15T23:22:48.894Z,100.00
2022-09-15T23:24:50.622Z,100.00
2022-09-15T23:26:52.354Z,100.00
2022-09-15T23:28:54.304Z,100.00
2022-09-15T23:30:57.599Z,100.00
2022-09-15T23:32:59.275Z,100.00
2022-09-15T23:35:02.041Z,100.00
2022-09-15T23:37:05.161Z,100.00
2022-09-15T23:39:09.045Z,100.00
2022-09-15T23:41:17.036Z,100.00
2022-09-15T23:43:19.078Z,100.00
2022-09-15T23:45:20.769Z,100.00
2022-09-15T23:47:35.546Z,100.00
2022-09-15T23:49:37.535Z,100.00
2022-09-15T23:51:43.826Z,100.00
2022-09-15T23:53:48.438Z,100.00
2022-09-15T23:55:50.725Z,100.00
2022-09-15T23:57:53.881Z,100.00
